createdAt,value
2019-04-20T00:01:52.559Z,9.53
2019-04-20T00:04:27.231Z,9.73
2019-04-20T00:06:54.383Z,9.93
2019-04-20T00:09:26.597Z,9.67
2019-04-20T00:12:01.509Z,9.20
2019-04-20T00:14:28.742Z,9.50
2019-04-20T00:16:53.258Z,9.97
2019-04-20T00:19:31.328Z,8.97
2019-04-20T00:22:00.486Z,8.77
2019-04-20T00:24:43.977Z,9.23
2019-04-20T00:27:40.274Z,8.47
2019-04-20T00:29:58.687Z,8.60
2019-04-20T00:32:22.932Z,8.67
2019-04-20T00:34:46.790Z,8.40
2019-04-20T00:37:15.071Z,8.40
2019-04-20T00:39:44.780Z,8.77
2019-04-20T00:42:16.164Z,9.30
2019-04-20T00:44:45.758Z,9.07
2019-04-20T00:47:25.279Z,8.90
2019-04-20T00:50:00.072Z,9.00
2019-04-20T00:52:47.179Z,8.80
2019-04-20T00:54:45.339Z,8.33
2019-04-20T00:57:24.671Z,8.97
2019-04-20T01:00:04.678Z,10.17
2019-04-20T01:02:29.608Z,9.70
2019-04-20T01:05:06.569Z,8.93
2019-04-20T01:07:32.052Z,9.03
2019-04-20T01:10:06.966Z,9.40
2019-04-20T01:12:38.399Z,9.07
2019-04-20T01:15:11.281Z,9.03
2019-04-20T01:17:41.401Z,9.23
2019-04-20T01:20:08.541Z,9.07
2019-04-20T01:22:44.336Z,9.07
2019-04-20T01:25:13.967Z,9.10
2019-04-20T01:27:52.339Z,8.97
2019-04-20T01:30:18.666Z,9.00
2019-04-20T01:32:55.411Z,9.47
2019-04-20T01:35:27.228Z,8.97
2019-04-20T01:38:00.233Z,9.43
2019-04-20T01:40:11.666Z,9.03
2019-04-20T01:42:42.559Z,9.10
2019-04-20T01:45:19.141Z,9.60
2019-04-20T01:47:47.204Z,9.70
2019-04-20T01:50:16.767Z,9.50
2019-04-20T01:52:55.014Z,9.60
2019-04-20T01:55:41.497Z,9.57
2019-04-20T01:58:32.657Z,9.80
2019-04-20T02:00:46.016Z,9.70
2019-04-20T02:03:40.284Z,9.07
2019-04-20T02:06:11.485Z,9.23
2019-04-20T02:08:37.819Z,9.30
2019-04-20T02:11:08.126Z,8.60
2019-04-20T02:13:44.391Z,8.90
2019-04-20T02:16:15.836Z,9.23
2019-04-20T02:18:51.435Z,9.07
2019-04-20T02:21:25.854Z,9.00
2019-04-20T02:23:46.402Z,8.90
2019-04-20T02:26:09.215Z,8.97
2019-04-20T02:29:07.917Z,8.83
2019-04-20T02:32:01.108Z,9.60
2019-04-20T02:34:23.840Z,9.10
2019-04-20T02:36:58.751Z,9.30
2019-04-20T02:39:37.816Z,8.90
2019-04-20T02:46:55.865Z,8.60
2019-04-20T02:49:37.673Z,8.90
2019-04-20T02:54:26.010Z,8.83
2019-04-20T02:57:07.382Z,9.03
2019-04-20T02:59:54.236Z,9.67
2019-04-20T03:02:01.435Z,9.07
2019-04-20T03:04:25.690Z,9.30
2019-04-20T03:07:04.248Z,9.40
2019-04-20T03:09:36.795Z,9.30
2019-04-20T03:12:08.047Z,9.63
2019-04-20T03:14:31.924Z,9.20
2019-04-20T03:17:10.457Z,9.60
2019-04-20T03:19:31.338Z,9.37
2019-04-20T03:22:09.091Z,9.53
2019-04-20T03:24:44.340Z,9.80
2019-04-20T03:27:07.220Z,10.13
2019-04-20T03:29:41.027Z,10.77
2019-04-20T03:32:44.242Z,10.70
2019-04-20T03:37:20.370Z,10.30
2019-04-20T03:39:41.693Z,11.43
2019-04-20T03:41:58.691Z,10.53
2019-04-20T03:44:30.660Z,11.00
2019-04-20T03:47:02.799Z,11.27
2019-04-20T03:49:54.922Z,11.33
2019-04-20T03:52:28.745Z,11.53
2019-04-20T03:54:56.254Z,11.87
2019-04-20T03:57:46.844Z,11.97
2019-04-20T04:00:26.257Z,11.40
2019-04-20T04:03:31.272Z,11.40
2019-04-20T04:05:31.058Z,11.80
2019-04-20T04:07:55.880Z,11.30
2019-04-20T04:10:28.066Z,11.23
2019-04-20T04:13:09.897Z,11.40
2019-04-20T04:15:47.866Z,11.97
2019-04-20T04:18:19.126Z,11.37
2019-04-20T04:20:46.723Z,11.77
2019-04-20T04:23:32.112Z,12.10
2019-04-20T04:26:00.354Z,11.53
2019-04-20T04:28:28.574Z,12.10
2019-04-20T04:31:04.129Z,11.37
2019-04-20T04:33:53.198Z,12.10
2019-04-20T04:35:58.814Z,11.70
2019-04-20T04:38:37.398Z,11.30
2019-04-20T04:43:31.618Z,11.73
2019-04-20T04:45:44.933Z,12.40
2019-04-20T04:48:21.298Z,11.77
2019-04-20T04:50:51.050Z,11.80
2019-04-20T04:53:28.894Z,11.80
2019-04-20T04:55:52.908Z,11.77
2019-04-20T04:58:14.925Z,11.37
2019-04-20T05:00:44.615Z,11.73
2019-04-20T05:03:28.124Z,11.87
2019-04-20T05:06:01.822Z,11.67
2019-04-20T05:08:25.048Z,10.53
2019-04-20T05:10:45.881Z,11.73
2019-04-20T05:13:15.686Z,11.20
2019-04-20T05:15:57.985Z,10.90
2019-04-20T05:18:43.218Z,11.17
2019-04-20T05:21:07.379Z,10.90
2019-04-20T05:23:31.716Z,11.30
2019-04-20T05:26:13.786Z,11.80
2019-04-20T05:28:33.342Z,11.30
2019-04-20T05:30:59.317Z,11.23
2019-04-20T05:33:34.348Z,11.77
2019-04-20T05:36:11.693Z,11.73
2019-04-20T05:38:47.203Z,11.90
2019-04-20T05:41:11.471Z,11.30
2019-04-20T05:43:49.672Z,11.10
2019-04-20T05:46:22.126Z,11.53
2019-04-20T05:48:53.343Z,11.17
2019-04-20T05:51:25.461Z,11.33
2019-04-20T05:53:54.237Z,11.47
2019-04-20T05:56:17.347Z,11.73
2019-04-20T05:58:53.580Z,11.50
2019-04-20T06:01:29.959Z,11.50
2019-04-20T06:03:48.839Z,11.27
2019-04-20T06:06:25.965Z,11.57
2019-04-20T06:08:59.942Z,11.23
2019-04-20T06:11:23.761Z,10.93
2019-04-20T06:13:50.667Z,11.20
2019-04-20T06:16:44.085Z,11.67
2019-04-20T06:19:19.894Z,11.87
2019-04-20T06:21:44.260Z,11.30
2019-04-20T06:24:20.788Z,11.53
2019-04-20T06:26:54.166Z,11.90
2019-04-20T06:29:15.932Z,10.97
2019-04-20T06:31:51.789Z,11.17
2019-04-20T06:34:33.387Z,10.87
2019-04-20T06:36:56.929Z,11.23
2019-04-20T06:42:10.921Z,10.27
2019-04-20T06:52:17.071Z,11.28
2019-04-20T06:54:54.156Z,11.00
2019-04-20T06:57:31.020Z,10.93
2019-04-20T07:00:02.541Z,10.70
2019-04-20T07:02:29.643Z,10.17
2019-04-20T07:04:59.655Z,10.83
2019-04-20T07:07:30.892Z,10.90
2019-04-20T07:10:08.686Z,10.47
2019-04-20T07:12:31.330Z,10.47
2019-04-20T07:14:49.650Z,10.50
2019-04-20T07:17:43.869Z,10.13
2019-04-20T07:20:04.754Z,10.10
2019-04-20T07:22:42.229Z,10.07
2019-04-20T07:25:11.263Z,9.83
2019-04-20T07:27:41.526Z,9.73
2019-04-20T07:30:21.852Z,10.03
2019-04-20T07:32:48.527Z,10.43
2019-04-20T07:35:08.417Z,10.00
2019-04-20T07:38:09.987Z,9.50
2019-04-20T07:40:18.909Z,9.80
2019-04-20T07:42:49.207Z,9.87
2019-04-20T07:45:18.133Z,9.73
2019-04-20T07:47:46.318Z,9.37
2019-04-20T07:50:12.046Z,10.03
2019-04-20T07:52:34.025Z,9.57
2019-04-20T07:57:40.509Z,8.97
2019-04-20T08:00:13.412Z,9.30
2019-04-20T08:03:13.097Z,9.23
2019-04-20T08:05:45.681Z,9.10
2019-04-20T08:08:25.350Z,8.97
2019-04-20T08:10:52.344Z,8.83
2019-04-20T08:13:37.087Z,9.60
2019-04-20T08:15:57.033Z,9.70
2019-04-20T08:18:27.679Z,9.50
2019-04-20T08:20:58.449Z,9.47
2019-04-20T08:23:38.588Z,9.37
2019-04-20T08:25:47.456Z,9.70
2019-04-20T08:28:16.461Z,9.73
2019-04-20T08:31:06.059Z,9.23
2019-04-20T08:33:45.240Z,9.57
2019-04-20T08:36:16.794Z,9.77
2019-04-20T08:39:11.514Z,10.10
2019-04-20T08:41:15.244Z,9.77
2019-04-20T08:46:15.045Z,9.50
2019-04-20T08:48:46.788Z,9.50
2019-04-20T08:51:22.529Z,9.70
2019-04-20T08:53:47.122Z,9.53
2019-04-20T08:56:10.848Z,9.47
2019-04-20T08:58:29.529Z,10.00
2019-04-20T09:01:03.627Z,10.00
2019-04-20T09:03:40.892Z,10.07
2019-04-20T09:06:06.520Z,9.67
2019-04-20T09:08:43.616Z,9.70
2019-04-20T09:11:15.356Z,8.67
2019-04-20T09:13:38.596Z,10.00
2019-04-20T09:16:01.992Z,10.17
2019-04-20T09:18:44.256Z,9.80
2019-04-20T09:21:13.652Z,9.90
2019-04-20T09:23:57.711Z,9.33
2019-04-20T09:26:32.432Z,9.33
2019-04-20T09:28:59.010Z,9.63
2019-04-20T09:31:31.005Z,9.80
2019-04-20T09:34:06.284Z,9.77
2019-04-20T09:36:36.663Z,10.00
2019-04-20T09:39:18.819Z,10.17
2019-04-20T09:44:13.425Z,9.23
2019-04-20T09:46:46.034Z,9.20
2019-04-20T09:49:20.088Z,9.03
2019-04-20T09:51:57.492Z,9.00
2019-04-20T09:54:31.099Z,9.87
2019-04-20T09:57:03.274Z,9.33
2019-04-20T09:59:33.540Z,8.80
2019-04-20T10:01:48.869Z,9.00
2019-04-20T10:04:15.239Z,9.30
2019-04-20T10:06:43.970Z,9.60
2019-04-20T10:09:13.629Z,9.40
2019-04-20T10:11:44.224Z,9.10
2019-04-20T10:14:12.734Z,9.33
2019-04-20T10:16:42.019Z,9.10
2019-04-20T10:19:11.971Z,7.90
2019-04-20T10:21:41.583Z,8.37
2019-04-20T10:24:10.650Z,8.03
2019-04-20T10:26:40.695Z,8.00
2019-04-20T10:29:09.908Z,8.50
2019-04-20T10:31:46.618Z,8.43
2019-04-20T10:34:09.528Z,8.07
2019-04-20T10:36:39.900Z,7.70
2019-04-20T10:39:10.722Z,7.63
2019-04-20T10:41:48.289Z,7.93
2019-04-20T10:44:11.201Z,7.53
2019-04-20T10:46:40.712Z,9.13
2019-04-20T10:49:09.798Z,8.60
2019-04-20T10:51:40.072Z,8.60
2019-04-20T10:54:08.852Z,9.15
2019-04-20T10:56:37.553Z,8.40
2019-04-20T10:59:06.123Z,8.10
2019-04-20T11:01:35.815Z,9.15
2019-04-20T11:04:04.924Z,8.15
2019-04-20T11:06:34.524Z,8.38
2019-04-20T11:09:04.672Z,8.00
2019-04-20T11:11:34.043Z,8.20
2019-04-20T11:14:11.769Z,8.00
2019-04-20T11:16:34.142Z,8.58
2019-04-20T11:19:03.303Z,8.88
2019-04-20T11:21:32.385Z,8.50
2019-04-20T11:24:02.269Z,7.90
2019-04-20T11:26:32.201Z,7.92
2019-04-20T11:29:02.139Z,7.55
2019-04-20T11:31:37.274Z,8.28
2019-04-20T11:34:01.216Z,7.60
2019-04-20T11:36:31.019Z,8.20
2019-04-20T11:39:00.736Z,8.25
2019-04-20T11:41:32.367Z,8.10
2019-04-20T11:43:59.837Z,8.00
2019-04-20T11:46:28.534Z,8.08
2019-04-20T11:48:57.352Z,8.13
2019-04-20T11:51:26.025Z,8.60
2019-04-20T11:53:54.677Z,8.15
2019-04-20T11:56:27.105Z,7.47
2019-04-20T11:58:53.582Z,7.08
2019-04-20T12:01:34.742Z,7.60
2019-04-20T12:04:02.891Z,7.20
2019-04-20T12:06:28.947Z,7.17
2019-04-20T12:08:58.969Z,6.78
2019-04-20T12:11:37.133Z,7.70
2019-04-20T12:13:58.638Z,7.05
2019-04-20T12:16:27.828Z,7.15
2019-04-20T12:18:56.748Z,6.95
2019-04-20T12:21:26.485Z,7.00
2019-04-20T12:23:56.190Z,6.78
2019-04-20T12:26:24.975Z,6.92
2019-04-20T12:28:54.088Z,7.00
2019-04-20T12:31:24.670Z,7.17
2019-04-20T12:33:52.982Z,7.33
2019-04-20T12:36:21.698Z,7.50
2019-04-20T12:38:51.021Z,7.10
2019-04-20T12:41:31.985Z,6.95
2019-04-20T12:43:50.175Z,6.97
2019-04-20T12:46:21.434Z,7.25
2019-04-20T12:48:49.384Z,6.78
2019-04-20T12:51:18.078Z,5.90
2019-04-20T12:53:46.724Z,6.33
2019-04-20T12:56:15.335Z,6.30
2019-04-20T12:58:45.112Z,6.20
2019-04-20T13:01:14.620Z,6.03
2019-04-20T13:03:45.567Z,6.90
2019-04-20T13:06:16.181Z,7.05
2019-04-20T13:08:51.800Z,6.28
2019-04-20T13:11:26.739Z,6.03
2019-04-20T13:14:12.469Z,7.28
2019-04-20T13:16:41.183Z,7.47
2019-04-20T13:19:11.028Z,7.70
2019-04-20T13:21:40.903Z,7.50
2019-04-20T13:24:10.005Z,7.50
2019-04-20T13:26:40.638Z,8.98
2019-04-20T13:29:10.614Z,9.60
2019-04-20T13:31:40.083Z,7.22
2019-04-20T13:34:10.559Z,7.22
2019-04-20T13:36:40.038Z,7.47
2019-04-20T13:39:10.064Z,6.17
2019-04-20T13:41:40.013Z,5.95
2019-04-20T13:44:08.723Z,6.08
2019-04-20T13:46:40.840Z,5.70
2019-04-20T13:49:09.155Z,5.00
2019-04-20T13:51:39.114Z,5.53
2019-04-20T13:54:13.887Z,5.33
2019-04-20T13:56:39.726Z,5.92
2019-04-20T13:59:26.650Z,5.90
2019-04-20T14:02:07.046Z,6.03
2019-04-20T14:04:38.925Z,6.33
2019-04-20T14:07:08.886Z,6.10
2019-04-20T14:09:39.432Z,6.60
2019-04-20T14:12:16.213Z,6.23
2019-04-20T14:14:39.242Z,6.33
2019-04-20T14:17:08.142Z,6.20
2019-04-20T14:19:36.962Z,6.80
2019-04-20T14:22:06.115Z,7.77
2019-04-20T14:24:37.136Z,7.53
2019-04-20T14:27:06.472Z,7.50
2019-04-20T14:29:35.170Z,7.00
2019-04-20T14:32:05.439Z,6.43
2019-04-20T14:34:35.218Z,7.10
2019-04-20T14:37:04.790Z,6.50
2019-04-20T14:39:34.217Z,7.13
2019-04-20T14:42:04.446Z,7.00
2019-04-20T14:44:34.005Z,6.40
2019-04-20T14:47:03.618Z,6.70
2019-04-20T14:49:32.628Z,6.60
2019-04-20T14:52:02.838Z,7.37
2019-04-20T14:54:31.826Z,7.10
2019-04-20T14:57:01.404Z,6.90
2019-04-20T14:59:31.791Z,7.60
2019-04-20T15:02:02.789Z,7.70
2019-04-20T15:04:32.265Z,6.97
2019-04-20T15:07:00.919Z,6.83
2019-04-20T15:09:30.739Z,6.70
2019-04-20T15:12:00.934Z,7.03
2019-04-20T15:14:29.725Z,6.87
2019-04-20T15:17:00.635Z,7.43
2019-04-20T15:19:31.586Z,7.50
2019-04-20T15:22:03.149Z,7.40
2019-04-20T15:24:33.804Z,7.17
2019-04-20T15:27:02.597Z,7.47
2019-04-20T15:29:32.486Z,7.70
2019-04-20T15:32:02.054Z,8.03
2019-04-20T15:34:30.965Z,7.67
2019-04-20T15:37:00.197Z,7.90
2019-04-20T15:39:29.206Z,8.13
2019-04-20T15:41:59.130Z,7.30
2019-04-20T15:44:29.201Z,6.80
2019-04-20T15:46:59.281Z,7.10
2019-04-20T15:49:29.474Z,7.13
2019-04-20T15:51:59.625Z,6.93
2019-04-20T15:54:29.501Z,6.77
2019-04-20T15:57:02.537Z,6.77
2019-04-20T15:59:28.622Z,6.73
2019-04-20T16:02:15.637Z,7.33
2019-04-20T16:04:52.584Z,7.10
2019-04-20T16:07:21.482Z,7.10
2019-04-20T16:09:51.619Z,7.33
2019-04-20T16:12:20.822Z,6.93
2019-04-20T16:14:49.582Z,7.17
2019-04-20T16:17:19.355Z,7.33
2019-04-20T16:19:56.617Z,6.80
2019-04-20T16:22:21.599Z,6.50
2019-04-20T16:25:07.580Z,6.63
2019-04-20T16:27:38.098Z,6.97
2019-04-20T16:30:07.710Z,7.37
2019-04-20T16:32:36.811Z,6.90
2019-04-20T16:35:08.710Z,7.23
2019-04-20T16:37:38.414Z,7.70
2019-04-20T16:40:09.716Z,7.03
2019-04-20T16:42:40.421Z,7.30
2019-04-20T16:45:09.536Z,7.10
2019-04-20T16:47:38.254Z,6.83
2019-04-20T16:50:08.753Z,7.30
2019-04-20T16:52:37.410Z,7.17
2019-04-20T16:55:08.236Z,7.70
2019-04-20T16:57:37.470Z,7.50
2019-04-20T17:00:07.600Z,7.30
2019-04-20T17:02:36.308Z,7.73
2019-04-20T17:05:05.532Z,7.53
2019-04-20T17:07:37.157Z,6.93
2019-04-20T17:10:07.918Z,6.77
2019-04-20T17:12:37.601Z,7.03
2019-04-20T17:15:11.750Z,6.93
2019-04-20T17:17:40.893Z,7.03
2019-04-20T17:20:11.597Z,6.63
2019-04-20T17:22:40.398Z,7.23
2019-04-20T17:25:10.128Z,7.07
2019-04-20T17:27:59.457Z,6.70
2019-04-20T17:30:48.733Z,6.20
2019-04-20T17:33:21.274Z,6.50
2019-04-20T17:35:59.391Z,6.43
2019-04-20T17:38:20.558Z,6.40
2019-04-20T17:41:02.974Z,6.80
2019-04-20T17:43:26.368Z,6.00
2019-04-20T17:45:57.831Z,6.70
2019-04-20T17:48:33.305Z,6.57
2019-04-20T17:51:11.189Z,6.33
2019-04-20T17:53:47.375Z,6.47
2019-04-20T17:56:10.314Z,5.80
2019-04-20T17:58:41.215Z,5.47
2019-04-20T18:01:31.120Z,6.30
2019-04-20T18:04:22.968Z,6.87
2019-04-20T18:06:41.670Z,6.63
2019-04-20T18:09:03.137Z,6.20
2019-04-20T18:11:25.652Z,6.10
2019-04-20T18:14:00.783Z,5.80
2019-04-20T18:16:46.480Z,5.53
2019-04-20T18:19:15.652Z,5.63
2019-04-20T18:21:43.540Z,5.50
2019-04-20T18:24:23.980Z,5.30
2019-04-20T18:26:59.642Z,5.20
2019-04-20T18:29:32.333Z,5.60
2019-04-20T18:31:44.984Z,5.40
2019-04-20T18:34:18.894Z,4.97
2019-04-20T18:36:47.627Z,5.67
2019-04-20T18:39:18.054Z,5.73
2019-04-20T18:41:51.436Z,5.97
2019-04-20T18:44:22.275Z,5.87
2019-04-20T18:47:23.395Z,5.63
2019-04-20T18:49:33.894Z,5.87
2019-04-20T18:51:48.014Z,5.67
2019-04-20T18:54:22.132Z,5.90
2019-04-20T18:56:50.709Z,5.93
2019-04-20T18:59:17.286Z,6.00
2019-04-20T19:01:46.780Z,5.57
2019-04-20T19:04:15.548Z,6.03
2019-04-20T19:06:45.793Z,6.97
2019-04-20T19:09:21.492Z,6.27
2019-04-20T19:11:52.530Z,7.43
2019-04-20T19:14:38.641Z,6.63
2019-04-20T19:17:21.950Z,6.77
2019-04-20T19:19:49.416Z,6.07
2019-04-20T19:22:14.245Z,6.27
2019-04-20T19:24:43.635Z,6.23
2019-04-20T19:27:16.099Z,6.57
2019-04-20T19:29:54.830Z,6.50
2019-04-20T19:32:32.436Z,6.30
2019-04-20T19:34:55.319Z,6.27
2019-04-20T19:37:25.308Z,6.03
2019-04-20T19:40:01.980Z,6.20
2019-04-20T19:42:33.211Z,6.70
2019-04-20T19:45:01.955Z,6.90
2019-04-20T19:47:37.052Z,6.63
2019-04-20T19:50:19.827Z,6.73
2019-04-20T19:52:43.332Z,7.13
2019-04-20T19:55:02.609Z,6.70
2019-04-20T19:57:41.289Z,7.20
2019-04-20T19:59:52.131Z,6.73
2019-04-20T20:02:18.040Z,6.93
2019-04-20T20:04:52.416Z,7.20
2019-04-20T20:07:26.349Z,7.17
2019-04-20T20:09:53.050Z,6.67
2019-04-20T20:12:19.842Z,6.50
2019-04-20T20:14:51.200Z,7.03
2019-04-20T20:17:37.055Z,6.93
2019-04-20T20:20:14.246Z,7.13
2019-04-20T20:22:30.243Z,7.37
2019-04-20T20:24:49.408Z,7.40
2019-04-20T20:27:26.862Z,7.70
2019-04-20T20:29:59.511Z,6.93
2019-04-20T20:32:34.785Z,7.10
2019-04-20T20:34:56.127Z,6.50
2019-04-20T20:37:29.518Z,6.80
2019-04-20T20:39:59.310Z,6.87
2019-04-20T20:42:30.927Z,6.50
2019-04-20T20:44:57.573Z,6.90
2019-04-20T20:47:41.967Z,6.50
2019-04-20T20:50:15.489Z,6.80
2019-04-20T20:52:38.152Z,6.73
2019-04-20T20:55:02.221Z,6.40
2019-04-20T20:57:24.793Z,6.30
2019-04-20T20:59:57.378Z,6.70
2019-04-20T21:02:35.380Z,6.40
2019-04-20T21:04:53.546Z,6.70
2019-04-20T21:07:22.557Z,7.00
2019-04-20T21:09:52.415Z,6.90
2019-04-20T21:12:22.312Z,7.30
2019-04-20T21:14:51.485Z,7.40
2019-04-20T21:17:24.260Z,6.47
2019-04-20T21:20:06.360Z,6.90
2019-04-20T21:22:41.326Z,6.80
2019-04-20T21:24:53.087Z,6.77
2019-04-20T21:27:22.293Z,7.67
2019-04-20T21:29:55.206Z,7.27
2019-04-20T21:32:23.716Z,7.37
2019-04-20T21:35:00.509Z,7.47
2019-04-20T21:37:25.623Z,7.90
2019-04-20T21:39:58.986Z,7.67
2019-04-20T21:42:26.442Z,8.03
2019-04-20T21:45:05.670Z,7.77
2019-04-20T21:47:30.756Z,8.10
2019-04-20T21:50:09.838Z,8.47
2019-04-20T21:52:32.223Z,7.70
2019-04-20T21:54:54.523Z,8.00
2019-04-20T21:57:24.176Z,7.83
2019-04-20T21:59:56.792Z,7.70
2019-04-20T22:02:28.222Z,7.90
2019-04-20T22:04:53.603Z,7.57
2019-04-20T22:07:22.783Z,7.30
2019-04-20T22:09:53.649Z,7.50
2019-04-20T22:12:21.959Z,8.27
2019-04-20T22:14:58.778Z,7.67
2019-04-20T22:17:27.565Z,8.47
2019-04-20T22:20:04.054Z,7.80
2019-04-20T22:22:41.096Z,8.20
2019-04-20T22:25:09.528Z,7.97
2019-04-20T22:27:26.735Z,7.53
2019-04-20T22:29:52.239Z,7.40
2019-04-20T22:32:22.574Z,8.23
2019-04-20T22:34:57.139Z,7.67
2019-04-20T22:37:28.258Z,7.57
2019-04-20T22:39:56.357Z,7.00
2019-04-20T22:42:23.683Z,7.27
2019-04-20T22:44:58.750Z,6.60
2019-04-20T22:47:28.179Z,7.30
2019-04-20T22:50:12.871Z,7.57
2019-04-20T22:52:39.806Z,7.20
2019-04-20T22:55:18.157Z,7.10
2019-04-20T22:57:38.418Z,7.27
2019-04-20T23:00:02.103Z,7.30
2019-04-20T23:02:26.453Z,7.03
2019-04-20T23:04:54.933Z,6.83
2019-04-20T23:07:23.799Z,7.10
2019-04-20T23:09:54.969Z,7.57
2019-04-20T23:12:25.181Z,7.57
2019-04-20T23:14:53.988Z,7.30
2019-04-20T23:17:29.643Z,7.60
2019-04-20T23:19:57.716Z,7.30
2019-04-20T23:22:33.598Z,7.80
2019-04-20T23:24:55.267Z,7.47
2019-04-20T23:27:28.993Z,7.60
2019-04-20T23:29:55.258Z,8.30
2019-04-20T23:32:27.958Z,8.47
2019-04-20T23:35:00.200Z,7.90
2019-04-20T23:37:29.933Z,8.13
2019-04-20T23:39:56.089Z,7.40
2019-04-20T23:42:33.588Z,7.20
2019-04-20T23:45:05.580Z,7.20
2019-04-20T23:47:57.765Z,7.60
2019-04-20T23:50:40.914Z,7.50
2019-04-20T23:53:10.104Z,7.53
2019-04-20T23:55:23.742Z,7.53
2019-04-20T23:57:57.912Z,7.20
